Time;durP1;ratioP1;P1;durP2;ratioP2;P2;SDS_P1;SDS_P2;PMS_P1;PMS_P2;Temp;Humidity;BMP_temperature;BMP_pressure;BME280_temperature;BME280_humidity;BME280_pressure;Samples;Min_cycle;Max_cycle;Signal;HPM_P1;HPM_P2
2022/01/04 00:01:01;;;;;;;1.80;0.60;;;;;;;;;;4900506;29;20846;-93
2022/01/04 00:03:28;;;;;;;0.73;0.63;;;;;;;;;;4900814;29;20215;-92
2022/01/04 00:05:56;;;;;;;0.63;0.50;;;;;;;;;;4897629;29;20593;-93
2022/01/04 00:08:26;;;;;;;0.40;0.40;;;;;;;;;;4896832;29;20212;-92
2022/01/04 00:11:05;;;;;;;1.90;0.53;;;;;;;;;;4902532;29;20921;-92
2022/01/04 00:13:34;;;;;;;0.40;0.40;;;;;;;;;;4896845;29;20267;-92
2022/01/04 00:16:03;;;;;;;2.03;0.57;;;;;;;;;;4898434;29;20218;-92
2022/01/04 00:18:30;;;;;;;0.60;0.60;;;;;;;;;;4900935;29;20222;-93
2022/01/04 00:20:57;;;;;;;0.70;0.70;;;;;;;;;;4900281;29;20223;-92
2022/01/04 00:23:25;;;;;;;1.33;0.67;;;;;;;;;;4896385;29;20291;-92
2022/01/04 00:25:52;;;;;;;0.47;0.40;;;;;;;;;;4907300;29;20204;-93
2022/01/04 00:28:20;;;;;;;1.27;0.67;;;;;;;;;;4900770;29;20207;-93
2022/01/04 00:30:48;;;;;;;0.60;0.60;;;;;;;;;;4898162;29;20777;-93
2022/01/04 00:33:17;;;;;;;1.10;0.57;;;;;;;;;;4896811;29;20222;-93
2022/01/04 00:35:45;;;;;;;1.93;0.50;;;;;;;;;;4901253;29;20266;-93
2022/01/04 00:38:12;;;;;;;0.40;0.40;;;;;;;;;;4901185;29;20219;-93
2022/01/04 00:40:40;;;;;;;0.50;0.50;;;;;;;;;;4898186;29;20231;-93
2022/01/04 00:43:07;;;;;;;1.17;0.50;;;;;;;;;;4898961;29;20282;-93
2022/01/04 00:45:36;;;;;;;1.60;1.03;;;;;;;;;;4900535;29;20224;-92
2022/01/04 00:50:50;;;;;;;0.50;0.50;;;;;;;;;;4891822;29;20215;-93
2022/01/04 00:53:18;;;;;;;0.60;0.60;;;;;;;;;;4900396;29;20215;-93
2022/01/04 00:55:45;;;;;;;0.67;0.60;;;;;;;;;;4901441;29;20227;-93
2022/01/04 00:58:12;;;;;;;1.33;0.60;;;;;;;;;;4898322;29;20208;-92
2022/01/04 01:00:40;;;;;;;2.70;0.70;;;;;;;;;;4895077;29;20267;-93
2022/01/04 01:03:09;;;;;;;3.50;0.70;;;;;;;;;;4901022;29;20215;-92
2022/01/04 01:05:37;;;;;;;0.80;0.80;;;;;;;;;;4901737;29;20243;-92
2022/01/04 01:08:04;;;;;;;1.10;0.53;;;;;;;;;;4893689;29;20243;-93
2022/01/04 01:10:47;;;;;;;1.13;0.70;;;;;;;;;;4901797;29;20214;-93
2022/01/04 01:13:15;;;;;;;0.77;0.60;;;;;;;;;;4900924;29;20203;-93
2022/01/04 01:15:45;;;;;;;1.80;0.80;;;;;;;;;;4898143;29;20279;-93
2022/01/04 01:18:15;;;;;;;1.40;1.00;;;;;;;;;;4894202;29;20227;-92
2022/01/04 01:20:42;;;;;;;2.23;0.93;;;;;;;;;;4900949;29;20207;-92
2022/01/04 01:23:10;;;;;;;1.20;1.10;;;;;;;;;;4900425;29;20211;-93
2022/01/04 01:25:37;;;;;;;0.53;0.53;;;;;;;;;;4894445;29;20237;-93
2022/01/04 01:28:05;;;;;;;0.90;0.90;;;;;;;;;;4899673;29;20215;-93
2022/01/04 01:30:35;;;;;;;1.13;0.97;;;;;;;;;;4901258;29;20211;-93
2022/01/04 01:33:03;;;;;;;0.70;0.67;;;;;;;;;;4891889;29;20224;-93
2022/01/04 01:35:33;;;;;;;0.80;0.80;;;;;;;;;;4901709;29;20242;-93
2022/01/04 01:38:00;;;;;;;0.77;0.73;;;;;;;;;;4902128;29;20581;-93
2022/01/04 01:40:28;;;;;;;0.90;0.90;;;;;;;;;;4895066;29;20235;-93
2022/01/04 01:42:56;;;;;;;0.83;0.83;;;;;;;;;;4895406;29;20665;-93
2022/01/04 01:45:23;;;;;;;1.37;0.80;;;;;;;;;;4900629;29;20618;-92
2022/01/04 01:47:51;;;;;;;1.10;0.70;;;;;;;;;;4900000;29;20270;-92
2022/01/04 01:50:19;;;;;;;0.87;0.87;;;;;;;;;;4891692;29;20317;-92
2022/01/04 01:52:50;;;;;;;1.23;0.93;;;;;;;;;;4894496;29;20226;-93
2022/01/04 01:55:19;;;;;;;1.50;0.97;;;;;;;;;;4898913;29;20227;-93
2022/01/04 01:57:47;;;;;;;0.73;0.73;;;;;;;;;;4897605;29;20299;-92
2022/01/04 02:00:16;;;;;;;0.70;0.70;;;;;;;;;;4899847;29;20665;-93
2022/01/04 02:02:43;;;;;;;1.07;0.97;;;;;;;;;;4898357;29;20223;-93
2022/01/04 02:05:11;;;;;;;0.83;0.80;;;;;;;;;;4903848;29;20260;-93
2022/01/04 02:07:40;;;;;;;1.57;0.90;;;;;;;;;;4902743;29;20221;-92
2022/01/04 02:10:10;;;;;;;0.70;0.70;;;;;;;;;;4898120;29;20215;-92
2022/01/04 02:12:39;;;;;;;3.03;0.97;;;;;;;;;;4904632;29;20424;-93
2022/01/04 02:15:08;;;;;;;0.90;0.80;;;;;;;;;;4902080;29;20237;-93
2022/01/04 02:17:35;;;;;;;0.83;0.80;;;;;;;;;;4905146;29;20219;-93
2022/01/04 02:20:05;;;;;;;0.90;0.90;;;;;;;;;;4896616;29;20219;-93
2022/01/04 02:22:33;;;;;;;0.70;0.70;;;;;;;;;;4904978;29;20268;-93
2022/01/04 02:25:00;;;;;;;1.07;0.83;;;;;;;;;;4905657;29;20693;-93
2022/01/04 02:27:27;;;;;;;1.13;0.90;;;;;;;;;;4903170;29;20244;-93
2022/01/04 02:29:55;;;;;;;0.93;0.90;;;;;;;;;;4904975;29;20215;-93
2022/01/04 02:32:22;;;;;;;1.30;0.80;;;;;;;;;;4904363;29;20238;-93
2022/01/04 02:34:50;;;;;;;0.67;0.67;;;;;;;;;;4904540;29;20235;-93
2022/01/04 02:37:22;;;;;;;0.87;0.87;;;;;;;;;;4901078;29;20236;-93
2022/01/04 02:39:50;;;;;;;0.70;0.70;;;;;;;;;;4904080;29;20218;-93
2022/01/04 02:42:17;;;;;;;0.73;0.73;;;;;;;;;;4904477;29;20217;-92
2022/01/04 02:44:45;;;;;;;1.23;0.90;;;;;;;;;;4900389;29;20235;-93
2022/01/04 02:47:14;;;;;;;0.73;0.73;;;;;;;;;;4908708;29;20499;-93
2022/01/04 02:49:42;;;;;;;1.07;0.83;;;;;;;;;;4903631;29;20211;-93
2022/01/04 02:52:09;;;;;;;1.50;1.00;;;;;;;;;;4904618;29;20215;-93
2022/01/04 02:54:38;;;;;;;1.00;0.80;;;;;;;;;;4899620;29;20246;-93
2022/01/04 02:57:06;;;;;;;1.00;0.97;;;;;;;;;;4903580;29;20215;-92
2022/01/04 02:59:33;;;;;;;1.20;1.10;;;;;;;;;;4904894;29;20224;-93
2022/01/04 03:02:00;;;;;;;0.77;0.77;;;;;;;;;;4902036;29;20207;-92
2022/01/04 03:04:28;;;;;;;0.90;0.87;;;;;;;;;;4899371;29;20227;-93
2022/01/04 03:06:55;;;;;;;0.80;0.80;;;;;;;;;;4904629;29;20275;-92
2022/01/04 03:09:22;;;;;;;0.70;0.70;;;;;;;;;;4905645;29;20215;-93
2022/01/04 03:11:51;;;;;;;0.83;0.83;;;;;;;;;;4898604;29;20215;-93
2022/01/04 03:14:18;;;;;;;1.53;0.80;;;;;;;;;;4898495;29;20267;-93
2022/01/04 03:16:47;;;;;;;1.03;0.93;;;;;;;;;;4893051;29;20224;-93
2022/01/04 03:19:14;;;;;;;0.80;0.80;;;;;;;;;;4902226;29;20215;-93
2022/01/04 03:21:42;;;;;;;0.77;0.77;;;;;;;;;;4902964;29;20219;-93
2022/01/04 03:24:10;;;;;;;2.17;1.07;;;;;;;;;;4904917;29;20227;-93
2022/01/04 03:26:38;;;;;;;1.50;1.10;;;;;;;;;;4905501;29;20231;-93
2022/01/04 03:29:08;;;;;;;1.23;0.90;;;;;;;;;;4901864;29;20270;-93
2022/01/04 03:31:35;;;;;;;1.20;1.07;;;;;;;;;;4907670;29;20203;-93
2022/01/04 03:34:03;;;;;;;1.07;0.97;;;;;;;;;;4909269;29;20238;-94
2022/01/04 03:36:30;;;;;;;1.00;1.00;;;;;;;;;;4910381;29;20231;-94
2022/01/04 03:38:58;;;;;;;1.73;1.30;;;;;;;;;;4913722;29;20211;-94
2022/01/04 03:41:30;;;;;;;0.87;0.87;;;;;;;;;;4907529;29;20204;-94
2022/01/04 03:43:57;;;;;;;1.90;0.90;;;;;;;;;;4914664;29;20227;-94
2022/01/04 03:46:26;;;;;;;1.23;1.00;;;;;;;;;;4915247;29;20203;-94
2022/01/04 03:48:54;;;;;;;1.50;1.07;;;;;;;;;;4914691;29;20207;-93
2022/01/04 03:51:21;;;;;;;0.83;0.80;;;;;;;;;;4915788;29;20221;-94
2022/01/04 03:53:48;;;;;;;1.47;1.10;;;;;;;;;;4916761;29;20299;-93
2022/01/04 03:56:16;;;;;;;2.37;1.00;;;;;;;;;;4917663;29;20701;-94
2022/01/04 03:58:44;;;;;;;1.10;0.83;;;;;;;;;;4918180;29;20200;-94
2022/01/04 04:01:11;;;;;;;1.10;1.00;;;;;;;;;;4917751;29;20203;-94
2022/01/04 04:03:40;;;;;;;0.87;0.87;;;;;;;;;;4917832;29;20203;-94
2022/01/04 04:06:09;;;;;;;1.23;1.13;;;;;;;;;;4919000;29;20208;-94
2022/01/04 04:08:36;;;;;;;2.37;1.07;;;;;;;;;;4919055;29;20191;-94
2022/01/04 04:11:07;;;;;;;2.17;1.00;;;;;;;;;;4918989;29;20227;-94
2022/01/04 04:13:34;;;;;;;1.30;1.20;;;;;;;;;;4919232;29;20195;-94
2022/01/04 04:16:02;;;;;;;1.10;1.00;;;;;;;;;;4918956;29;20227;-94
2022/01/04 04:18:29;;;;;;;0.90;0.90;;;;;;;;;;4919491;29;20254;-93
2022/01/04 04:20:58;;;;;;;1.47;1.10;;;;;;;;;;4919813;29;20461;-94
2022/01/04 04:23:26;;;;;;;0.93;0.93;;;;;;;;;;4912921;29;20225;-94
2022/01/04 04:25:53;;;;;;;1.37;0.97;;;;;;;;;;4919192;29;20274;-94
2022/01/04 04:28:21;;;;;;;1.73;1.20;;;;;;;;;;4918760;29;20270;-94
2022/01/04 04:30:48;;;;;;;1.60;0.80;;;;;;;;;;4918663;29;20275;-95
2022/01/04 04:33:18;;;;;;;0.80;0.80;;;;;;;;;;4918855;29;20191;-94
2022/01/04 04:35:48;;;;;;;1.20;1.10;;;;;;;;;;4919395;29;20237;-94
2022/01/04 04:38:18;;;;;;;3.77;1.20;;;;;;;;;;4919209;29;20214;-94
2022/01/04 04:40:46;;;;;;;1.20;1.10;;;;;;;;;;4919763;29;20211;-94
2022/01/04 04:43:17;;;;;;;1.03;1.00;;;;;;;;;;4919791;29;20224;-94
2022/01/04 04:45:44;;;;;;;1.30;1.20;;;;;;;;;;4919657;29;20222;-95
2022/01/04 04:48:16;;;;;;;1.33;1.10;;;;;;;;;;4919642;29;20195;-95
2022/01/04 04:50:45;;;;;;;1.63;0.80;;;;;;;;;;4919686;29;20203;-94
2022/01/04 04:53:15;;;;;;;0.93;0.93;;;;;;;;;;4919671;29;20183;-95
2022/01/04 04:55:45;;;;;;;1.73;1.00;;;;;;;;;;4919251;29;20215;-95
2022/01/04 04:58:17;;;;;;;1.87;0.87;;;;;;;;;;4919377;29;20220;-95
2022/01/04 05:00:45;;;;;;;2.50;0.90;;;;;;;;;;4919357;29;20230;-95
2022/01/04 05:03:17;;;;;;;0.80;0.80;;;;;;;;;;4919427;29;20199;-95
2022/01/04 05:05:50;;;;;;;1.13;1.03;;;;;;;;;;4919336;29;20243;-95
2022/01/04 05:08:17;;;;;;;1.87;1.10;;;;;;;;;;4919199;29;20218;-95
2022/01/04 05:10:46;;;;;;;1.10;1.00;;;;;;;;;;4919084;29;20255;-94
2022/01/04 05:13:14;;;;;;;0.77;0.77;;;;;;;;;;4919072;29;20207;-96
2022/01/04 05:15:41;;;;;;;1.77;1.10;;;;;;;;;;4919023;29;20282;-94
2022/01/04 05:18:10;;;;;;;2.30;0.90;;;;;;;;;;4919136;29;20267;-94
2022/01/04 05:20:38;;;;;;;1.03;0.93;;;;;;;;;;4919013;29;20219;-94
2022/01/04 05:23:07;;;;;;;1.27;0.83;;;;;;;;;;4919002;29;20184;-95
2022/01/04 05:25:35;;;;;;;1.13;1.07;;;;;;;;;;4918800;29;20219;-95
2022/01/04 05:28:06;;;;;;;0.97;0.93;;;;;;;;;;4918668;29;20213;-95
2022/01/04 05:30:35;;;;;;;0.90;0.90;;;;;;;;;;4918939;29;20259;-94
2022/01/04 05:33:07;;;;;;;2.03;1.10;;;;;;;;;;4919013;29;20226;-95
2022/01/04 05:35:39;;;;;;;0.87;0.87;;;;;;;;;;4918976;29;20254;-95
2022/01/04 05:38:07;;;;;;;1.33;0.80;;;;;;;;;;4919067;29;20226;-95
2022/01/04 05:40:37;;;;;;;2.00;1.00;;;;;;;;;;4918379;29;20195;-95
2022/01/04 05:43:21;;;;;;;0.80;0.80;;;;;;;;;;4918570;29;20211;-95
2022/01/04 05:46:00;;;;;;;;;;;;;;;;;;;;;
2022/01/04 05:51:22;;;;;;;2.07;1.10;;;;;;;;;;4912358;29;20206;-95
2022/01/04 05:53:51;;;;;;;1.03;0.90;;;;;;;;;;4918862;29;20251;-95
2022/01/04 05:56:19;;;;;;;1.50;1.00;;;;;;;;;;4918744;29;20214;-95
2022/01/04 05:59:16;;;;;;;;;;;;;;;;;;;;;
2022/01/04 06:01:49;;;;;;;0.97;0.80;;;;;;;;;;4918982;29;20211;-95
2022/01/04 06:04:41;;;;;;;3.43;0.77;;;;;;;;;;4918759;29;20283;-96
2022/01/04 06:07:14;;;;;;;0.87;0.87;;;;;;;;;;4916471;29;20214;-95
2022/01/04 06:09:45;;;;;;;0.60;0.60;;;;;;;;;;4918769;29;20255;-95
2022/01/04 06:15:05;;;;;;;1.27;1.00;;;;;;;;;;4918537;29;20226;-95
2022/01/04 06:17:34;;;;;;;3.43;0.97;;;;;;;;;;4918519;29;20239;-96
2022/01/04 06:20:05;;;;;;;0.80;0.80;;;;;;;;;;4918500;29;20188;-95
2022/01/04 06:22:32;;;;;;;1.83;0.97;;;;;;;;;;4918709;29;20235;-95
2022/01/04 06:25:01;;;;;;;2.93;1.20;;;;;;;;;;4918481;29;20203;-95
2022/01/04 06:27:29;;;;;;;2.57;1.00;;;;;;;;;;4918748;29;20191;-95
2022/01/04 06:30:00;;;;;;;3.03;1.80;;;;;;;;;;4918394;29;20192;-95
2022/01/04 06:32:29;;;;;;;3.53;2.03;;;;;;;;;;4918493;29;20191;-95
2022/01/04 06:34:59;;;;;;;2.33;2.13;;;;;;;;;;4918595;29;20235;-96
2022/01/04 06:37:32;;;;;;;5.40;2.30;;;;;;;;;;4918474;29;20278;-95
2022/01/04 06:40:03;;;;;;;3.83;2.30;;;;;;;;;;4918570;29;20224;-95
2022/01/04 06:42:31;;;;;;;2.33;1.40;;;;;;;;;;4918501;29;20200;-95
2022/01/04 06:45:01;;;;;;;2.73;1.50;;;;;;;;;;4918018;29;20277;-95
2022/01/04 06:47:30;;;;;;;4.50;1.90;;;;;;;;;;4921792;29;20220;-94
2022/01/04 06:49:58;;;;;;;3.90;2.70;;;;;;;;;;4904264;29;20238;-92
2022/01/04 06:52:25;;;;;;;3.10;2.30;;;;;;;;;;4901020;29;20236;-92
2022/01/04 06:54:52;;;;;;;1.77;1.63;;;;;;;;;;4900952;29;20231;-92
2022/01/04 06:57:20;;;;;;;1.70;1.60;;;;;;;;;;4900239;29;20231;-92
2022/01/04 06:59:47;;;;;;;1.70;1.60;;;;;;;;;;4899542;29;20600;-92
2022/01/04 07:02:14;;;;;;;2.80;1.83;;;;;;;;;;4900022;29;20653;-92
2022/01/04 07:04:43;;;;;;;2.73;2.43;;;;;;;;;;4900282;29;20235;-92
2022/01/04 07:07:11;;;;;;;2.67;2.47;;;;;;;;;;4900109;29;20211;-93
2022/01/04 07:09:38;;;;;;;2.63;1.90;;;;;;;;;;4900229;29;20243;-92
2022/01/04 07:12:05;;;;;;;1.87;1.63;;;;;;;;;;4899772;29;20307;-92
2022/01/04 07:14:33;;;;;;;2.27;1.97;;;;;;;;;;4899760;29;20247;-92
2022/01/04 07:17:00;;;;;;;4.13;1.93;;;;;;;;;;4899704;29;20235;-92
2022/01/04 07:19:28;;;;;;;2.43;2.10;;;;;;;;;;4899893;29;20551;-92
2022/01/04 07:21:56;;;;;;;2.53;1.50;;;;;;;;;;4900137;29;20304;-92
2022/01/04 07:24:25;;;;;;;3.43;1.63;;;;;;;;;;4900293;29;20239;-93
2022/01/04 07:26:52;;;;;;;4.80;1.53;;;;;;;;;;4900116;29;20282;-92
2022/01/04 07:29:20;;;;;;;1.33;1.23;;;;;;;;;;4899758;29;20207;-92
2022/01/04 07:31:47;;;;;;;1.13;1.03;;;;;;;;;;4899971;29;20212;-92
2022/01/04 07:34:14;;;;;;;1.73;1.10;;;;;;;;;;4899608;29;20231;-92
2022/01/04 07:36:42;;;;;;;1.10;1.00;;;;;;;;;;4899134;29;20227;-92
2022/01/04 07:39:10;;;;;;;0.80;0.80;;;;;;;;;;4899536;29;20332;-92
2022/01/04 07:41:38;;;;;;;0.77;0.77;;;;;;;;;;4899582;29;20593;-92
2022/01/04 07:44:06;;;;;;;1.73;1.17;;;;;;;;;;4899162;29;20238;-92
2022/01/04 07:46:34;;;;;;;2.13;1.00;;;;;;;;;;4899596;29;20207;-92
2022/01/04 07:49:01;;;;;;;4.20;1.37;;;;;;;;;;4899497;29;20283;-91
2022/01/04 07:51:29;;;;;;;2.57;1.30;;;;;;;;;;4899886;29;20211;-92
2022/01/04 07:53:56;;;;;;;2.37;1.33;;;;;;;;;;4899219;29;20317;-92
2022/01/04 07:56:27;;;;;;;4.67;1.93;;;;;;;;;;4899357;29;20279;-92
2022/01/04 07:59:00;;;;;;;1.37;1.20;;;;;;;;;;4899480;29;20233;-92
2022/01/04 08:01:27;;;;;;;1.30;1.10;;;;;;;;;;4899364;29;20215;-92
2022/01/04 08:03:55;;;;;;;1.13;1.00;;;;;;;;;;4899175;29;20238;-92
2022/01/04 08:06:22;;;;;;;1.40;0.90;;;;;;;;;;4899167;29;20218;-92
2022/01/04 08:08:49;;;;;;;0.77;0.70;;;;;;;;;;4898875;29;20730;-92
2022/01/04 08:11:18;;;;;;;1.30;0.93;;;;;;;;;;4899185;29;20745;-93
2022/01/04 08:13:47;;;;;;;1.10;0.90;;;;;;;;;;4897916;29;20615;-92
2022/01/04 08:16:15;;;;;;;5.60;1.00;;;;;;;;;;4896793;29;20215;-92
2022/01/04 08:18:43;;;;;;;0.87;0.70;;;;;;;;;;4898024;29;20238;-92
2022/01/04 08:21:10;;;;;;;1.00;0.77;;;;;;;;;;4894490;29;20706;-92
2022/01/04 08:23:38;;;;;;;0.70;0.70;;;;;;;;;;4897610;29;20211;-92
2022/01/04 08:26:05;;;;;;;0.80;0.80;;;;;;;;;;4889016;29;20267;-92
2022/01/04 08:28:33;;;;;;;1.63;0.70;;;;;;;;;;4889949;29;20311;-93
2022/01/04 08:31:05;;;;;;;1.10;0.90;;;;;;;;;;4894461;29;20206;-92
2022/01/04 08:33:32;;;;;;;0.90;0.90;;;;;;;;;;4893623;29;20215;-93
2022/01/04 08:35:59;;;;;;;1.13;0.53;;;;;;;;;;4891138;29;20222;-92
2022/01/04 08:38:27;;;;;;;1.00;0.90;;;;;;;;;;4894306;29;20227;-92
2022/01/04 08:40:54;;;;;;;0.70;0.70;;;;;;;;;;4894537;29;20672;-93
2022/01/04 08:43:24;;;;;;;0.80;0.70;;;;;;;;;;4886474;29;20271;-92
2022/01/04 08:45:51;;;;;;;1.00;0.73;;;;;;;;;;4894815;29;20227;-93
2022/01/04 08:48:20;;;;;;;1.37;0.97;;;;;;;;;;4894590;29;20291;-92
2022/01/04 08:50:48;;;;;;;1.53;0.90;;;;;;;;;;4895916;29;20625;-92
2022/01/04 08:53:16;;;;;;;4.77;2.27;;;;;;;;;;4887793;29;20685;-92
2022/01/04 08:55:44;;;;;;;1.20;1.10;;;;;;;;;;4893704;29;20228;-92
2022/01/04 08:58:11;;;;;;;0.83;0.80;;;;;;;;;;4893344;29;20226;-92
2022/01/04 09:00:39;;;;;;;1.20;1.10;;;;;;;;;;4889410;29;20284;-93
2022/01/04 09:03:06;;;;;;;1.07;1.00;;;;;;;;;;4892508;29;20225;-92
2022/01/04 09:05:35;;;;;;;2.77;1.27;;;;;;;;;;4895112;29;20287;-92
2022/01/04 09:08:03;;;;;;;1.13;0.80;;;;;;;;;;4895733;29;20215;-91
2022/01/04 09:10:32;;;;;;;2.87;1.00;;;;;;;;;;4890315;29;20214;-92
2022/01/04 09:13:05;;;;;;;1.80;0.97;;;;;;;;;;4895087;29;20211;-92
2022/01/04 09:15:46;;;;;;;1.07;0.97;;;;;;;;;;4888270;29;20620;-93
2022/01/04 09:21:07;;;;;;;0.80;0.80;;;;;;;;;;4891593;29;20744;-91
2022/01/04 09:23:34;;;;;;;1.43;1.33;;;;;;;;;;4889529;29;20672;-92
2022/01/04 09:26:02;;;;;;;1.37;1.07;;;;;;;;;;4893451;29;20223;-92
2022/01/04 09:28:29;;;;;;;0.80;0.80;;;;;;;;;;4894351;29;20204;-93
2022/01/04 09:30:57;;;;;;;1.33;0.93;;;;;;;;;;4894416;29;20213;-92
2022/01/04 09:33:25;;;;;;;0.67;0.67;;;;;;;;;;4891172;29;20267;-92
2022/01/04 09:35:56;;;;;;;1.20;1.00;;;;;;;;;;4890323;29;20207;-92
2022/01/04 09:38:25;;;;;;;1.20;0.90;;;;;;;;;;4893716;29;20231;-93
2022/01/04 09:40:56;;;;;;;0.80;0.80;;;;;;;;;;4894429;29;20218;-93
2022/01/04 09:43:26;;;;;;;1.03;0.90;;;;;;;;;;4890972;29;20593;-93
2022/01/04 09:46:07;;;;;;;1.80;0.93;;;;;;;;;;4893978;29;20278;-92
2022/01/04 09:48:34;;;;;;;0.90;0.80;;;;;;;;;;4875352;29;20204;-92
2022/01/04 09:51:02;;;;;;;1.40;0.83;;;;;;;;;;4876490;29;20216;-92
2022/01/04 09:53:32;;;;;;;0.70;0.70;;;;;;;;;;4889054;29;20646;-92
2022/01/04 09:55:59;;;;;;;0.93;0.93;;;;;;;;;;4893879;29;20246;-93
2022/01/04 09:58:27;;;;;;;2.37;0.70;;;;;;;;;;4894877;29;20637;-92
2022/01/04 10:00:54;;;;;;;1.60;1.20;;;;;;;;;;4888709;29;20606;-92
2022/01/04 10:03:25;;;;;;;0.80;0.80;;;;;;;;;;4888942;29;20215;-92
2022/01/04 10:06:00;;;;;;;1.27;0.70;;;;;;;;;;4894522;29;20222;-92
2022/01/04 10:08:32;;;;;;;1.30;0.90;;;;;;;;;;4894355;29;20214;-92
2022/01/04 10:11:04;;;;;;;0.67;0.67;;;;;;;;;;4891695;29;20222;-93
2022/01/04 10:13:32;;;;;;;0.80;0.80;;;;;;;;;;4893971;29;20262;-92
2022/01/04 10:15:59;;;;;;;1.23;0.80;;;;;;;;;;4893579;29;20207;-93
2022/01/04 10:18:28;;;;;;;1.10;0.80;;;;;;;;;;4883489;29;20228;-92
2022/01/04 10:21:10;;;;;;;3.33;1.27;;;;;;;;;;4891837;29;20215;-93
2022/01/04 10:23:50;;;;;;;1.60;0.97;;;;;;;;;;4895626;29;20299;-93
2022/01/04 10:26:18;;;;;;;2.13;1.20;;;;;;;;;;4890089;29;20680;-92
2022/01/04 10:28:46;;;;;;;1.00;0.90;;;;;;;;;;4895963;29;20211;-92
2022/01/04 10:31:15;;;;;;;2.87;1.13;;;;;;;;;;4897381;29;20606;-92
2022/01/04 10:33:44;;;;;;;13.63;6.80;;;;;;;;;;4896704;29;20215;-92
2022/01/04 10:36:12;;;;;;;1.20;1.10;;;;;;;;;;4888249;29;20689;-91
2022/01/04 10:38:41;;;;;;;1.70;0.90;;;;;;;;;;4896746;29;20688;-91
2022/01/04 10:41:11;;;;;;;0.97;0.93;;;;;;;;;;4898203;29;20208;-92
2022/01/04 10:43:40;;;;;;;3.17;1.20;;;;;;;;;;4895607;29;20215;-92
2022/01/04 10:46:08;;;;;;;1.00;0.90;;;;;;;;;;4887029;29;20575;-92
2022/01/04 10:48:39;;;;;;;1.00;0.90;;;;;;;;;;4892793;29;20208;-93
2022/01/04 10:51:12;;;;;;;0.87;0.87;;;;;;;;;;4891471;29;20207;-92
2022/01/04 10:53:40;;;;;;;3.20;1.23;;;;;;;;;;4896237;29;20210;-92
2022/01/04 10:56:08;;;;;;;3.33;1.23;;;;;;;;;;4893010;29;20222;-92
2022/01/04 10:58:38;;;;;;;1.10;1.00;;;;;;;;;;4889914;29;20231;-93
2022/01/04 11:01:07;;;;;;;1.20;1.17;;;;;;;;;;4894565;29;20208;-93
2022/01/04 11:03:37;;;;;;;0.90;0.90;;;;;;;;;;4896049;29;20207;-92
2022/01/04 11:06:06;;;;;;;1.77;1.10;;;;;;;;;;4900853;29;20267;-91
2022/01/04 11:08:36;;;;;;;1.67;1.30;;;;;;;;;;4900825;29;20724;-91
2022/01/04 11:13:58;;;;;;;1.43;1.00;;;;;;;;;;4900846;29;20231;-92
2022/01/04 11:16:27;;;;;;;1.70;1.00;;;;;;;;;;4902126;29;20280;-92
2022/01/04 11:18:59;;;;;;;1.20;1.20;;;;;;;;;;4901283;29;20228;-92
2022/01/04 11:21:28;;;;;;;2.37;1.10;;;;;;;;;;4903568;29;20231;-91
2022/01/04 11:23:56;;;;;;;3.53;1.17;;;;;;;;;;4901758;29;20231;-93
2022/01/04 11:26:25;;;;;;;3.27;1.30;;;;;;;;;;4901563;29;20218;-92
2022/01/04 11:28:58;;;;;;;1.37;1.10;;;;;;;;;;4902667;29;20214;-95
2022/01/04 11:31:44;;;;;;;1.07;0.93;;;;;;;;;;4901634;29;20216;-92
2022/01/04 11:34:17;;;;;;;2.17;1.30;;;;;;;;;;4902834;29;20314;-94
2022/01/04 11:36:45;;;;;;;1.37;1.27;;;;;;;;;;4902660;29;20210;-91
2022/01/04 11:39:29;;;;;;;3.53;1.20;;;;;;;;;;4901743;29;20685;-92
2022/01/04 11:41:57;;;;;;;3.20;1.27;;;;;;;;;;4902908;29;20304;-91
2022/01/04 11:44:25;;;;;;;1.40;1.30;;;;;;;;;;4902919;29;20235;-90
2022/01/04 11:47:03;;;;;;;1.10;0.87;;;;;;;;;;4902515;29;20761;-91
2022/01/04 11:49:32;;;;;;;2.47;1.37;;;;;;;;;;4902365;29;20582;-92
2022/01/04 11:52:00;;;;;;;2.53;1.10;;;;;;;;;;4902607;29;20219;-92
2022/01/04 11:54:34;;;;;;;2.43;1.10;;;;;;;;;;4902304;29;20731;-91
2022/01/04 11:57:03;;;;;;;1.90;1.20;;;;;;;;;;4903390;29;20230;-91
2022/01/04 11:59:35;;;;;;;1.60;1.13;;;;;;;;;;4902524;29;20711;-92
2022/01/04 12:02:17;;;;;;;1.00;0.90;;;;;;;;;;4902369;29;20196;-94
2022/01/04 12:05:04;;;;;;;;;;;;;;;;;;;;;
2022/01/04 12:07:45;;;;;;;1.10;1.00;;;;;;;;;;4903174;29;20683;-91
2022/01/04 12:10:32;;;;;;;1.27;1.10;;;;;;;;;;4900681;29;20215;-92
2022/01/04 12:13:03;;;;;;;1.30;1.20;;;;;;;;;;4902438;29;20215;-92
2022/01/04 12:16:02;;;;;;;1.77;1.40;;;;;;;;;;4899141;29;20252;-92
2022/01/04 12:19:09;;;;;;;2.13;1.30;;;;;;;;;;4860541;29;20324;-92
2022/01/04 12:31:27;;;;;;;1.40;1.30;;;;;;;;;;4903688;29;20227;-95
2022/01/04 12:36:40;;;;;;;1.27;1.10;;;;;;;;;;4900407;29;20212;-91
2022/01/04 12:39:12;;;;;;;1.53;1.00;;;;;;;;;;4904214;29;20235;-91
2022/01/04 12:41:44;;;;;;;1.67;1.20;;;;;;;;;;4900582;29;20219;-91
2022/01/04 12:44:27;;;;;;;3.27;2.00;;;;;;;;;;4900213;29;20238;-92
2022/01/04 12:47:12;;;;;;;2.60;1.80;;;;;;;;;;4903078;29;20213;-92
2022/01/04 12:49:40;;;;;;;1.03;1.00;;;;;;;;;;4914465;29;20195;-91
2022/01/04 12:52:08;;;;;;;1.30;1.20;;;;;;;;;;4914179;29;20191;-91
2022/01/04 12:54:37;;;;;;;1.77;1.67;;;;;;;;;;4912717;29;20210;-90
2022/01/04 12:57:06;;;;;;;1.57;1.40;;;;;;;;;;4912587;29;20259;-91
2022/01/04 12:59:40;;;;;;;1.53;1.13;;;;;;;;;;4914258;29;20478;-91
2022/01/04 13:02:12;;;;;;;2.50;1.00;;;;;;;;;;4910256;29;20210;-91
2022/01/04 13:04:42;;;;;;;1.83;1.50;;;;;;;;;;4908412;29;20300;-90
2022/01/04 13:07:14;;;;;;;1.33;1.10;;;;;;;;;;4914047;29;20191;-90
2022/01/04 13:09:41;;;;;;;1.57;1.23;;;;;;;;;;4913969;29;20206;-91
2022/01/04 13:12:10;;;;;;;2.43;1.40;;;;;;;;;;4909755;29;20215;-90
2022/01/04 13:14:40;;;;;;;2.07;1.50;;;;;;;;;;4912433;29;20271;-90
2022/01/04 13:17:08;;;;;;;2.13;1.67;;;;;;;;;;4909370;29;20243;-90
2022/01/04 13:19:36;;;;;;;2.47;0.77;;;;;;;;;;4908122;29;20306;-93
2022/01/04 13:22:07;;;;;;;1.70;1.60;;;;;;;;;;4906446;29;20270;-90
2022/01/04 13:24:36;;;;;;;2.47;1.40;;;;;;;;;;4907588;29;20232;-92
2022/01/04 13:27:20;;;;;;;2.40;1.57;;;;;;;;;;4905485;29;20332;-91
2022/01/04 13:29:48;;;;;;;2.33;1.30;;;;;;;;;;4910208;29;20207;-91
2022/01/04 13:32:15;;;;;;;1.80;1.20;;;;;;;;;;4906717;29;20219;-92
2022/01/04 13:34:43;;;;;;;1.67;1.20;;;;;;;;;;4908424;29;20229;-92
2022/01/04 13:37:11;;;;;;;2.27;1.47;;;;;;;;;;4912368;29;20199;-91
2022/01/04 13:39:38;;;;;;;1.17;0.90;;;;;;;;;;4892686;29;20433;-92
2022/01/04 13:42:25;;;;;;;1.90;1.33;;;;;;;;;;4908334;29;20218;-92
2022/01/04 13:44:59;;;;;;;2.50;1.50;;;;;;;;;;4908575;29;20235;-93
2022/01/04 13:47:26;;;;;;;1.07;0.97;;;;;;;;;;4904937;29;20215;-92
2022/01/04 13:49:53;;;;;;;1.07;1.00;;;;;;;;;;4912986;29;20206;-93
2022/01/04 13:52:21;;;;;;;1.80;1.40;;;;;;;;;;4905933;29;20318;-94
2022/01/04 13:54:48;;;;;;;3.10;1.30;;;;;;;;;;4904510;29;20262;-93
2022/01/04 13:57:16;;;;;;;2.03;1.10;;;;;;;;;;4906950;29;20223;-93
2022/01/04 13:59:44;;;;;;;1.60;1.43;;;;;;;;;;4905743;29;20259;-93
2022/01/04 14:02:30;;;;;;;2.70;1.27;;;;;;;;;;4901559;29;20214;-94
2022/01/04 14:05:14;;;;;;;2.20;1.00;;;;;;;;;;4902242;29;20231;-94
2022/01/04 14:07:41;;;;;;;1.30;1.23;;;;;;;;;;4907832;29;20204;-93
2022/01/04 14:10:09;;;;;;;1.20;1.10;;;;;;;;;;4908373;29;20203;-93
2022/01/04 14:12:45;;;;;;;2.03;0.97;;;;;;;;;;4907047;29;20216;-94
2022/01/04 14:15:13;;;;;;;2.33;1.10;;;;;;;;;;4888300;29;20238;-93
2022/01/04 14:17:42;;;;;;;2.13;1.13;;;;;;;;;;4902447;29;20212;-94
2022/01/04 14:20:12;;;;;;;1.73;0.97;;;;;;;;;;4906393;29;20235;-94
2022/01/04 14:22:41;;;;;;;1.83;1.00;;;;;;;;;;4907834;29;20211;-94
2022/01/04 14:25:09;;;;;;;1.17;0.90;;;;;;;;;;4907354;29;20235;-94
2022/01/04 14:27:38;;;;;;;1.50;1.40;;;;;;;;;;4908600;29;20211;-93
2022/01/04 14:30:07;;;;;;;2.10;1.43;;;;;;;;;;4897798;29;20442;-91
2022/01/04 14:32:36;;;;;;;1.97;1.37;;;;;;;;;;4908734;29;20218;-94
2022/01/04 14:35:08;;;;;;;1.20;1.10;;;;;;;;;;4907576;29;20251;-92
2022/01/04 14:37:37;;;;;;;3.30;1.20;;;;;;;;;;4901262;29;20211;-94
2022/01/04 14:40:05;;;;;;;2.30;1.20;;;;;;;;;;4907461;29;20260;-94
2022/01/04 14:42:32;;;;;;;3.53;0.90;;;;;;;;;;4907904;29;20213;-93
2022/01/04 14:45:02;;;;;;;0.40;0.40;;;;;;;;;;4910186;29;20219;-93
2022/01/04 14:47:29;;;;;;;3.10;0.80;;;;;;;;;;4899371;29;20213;-93
2022/01/04 14:49:57;;;;;;;0.60;0.60;;;;;;;;;;4912225;29;20279;-94
2022/01/04 14:52:26;;;;;;;0.60;0.60;;;;;;;;;;4910415;29;20211;-93
2022/01/04 14:54:53;;;;;;;0.63;0.40;;;;;;;;;;4913441;29;20232;-93
2022/01/04 14:57:23;;;;;;;0.60;0.60;;;;;;;;;;4911494;29;20216;-93
2022/01/04 14:59:51;;;;;;;0.60;0.60;;;;;;;;;;4906303;29;20231;-93
2022/01/04 15:02:18;;;;;;;0.53;0.50;;;;;;;;;;4896010;29;20203;-94
2022/01/04 15:04:46;;;;;;;0.20;0.20;;;;;;;;;;4902784;29;20239;-94
2022/01/04 15:07:13;;;;;;;0.60;0.60;;;;;;;;;;4901875;29;20230;-93
2022/01/04 15:09:42;;;;;;;0.40;0.40;;;;;;;;;;4900827;29;20215;-93
2022/01/04 15:12:09;;;;;;;1.13;0.57;;;;;;;;;;4893546;29;20256;-94
2022/01/04 15:14:39;;;;;;;0.40;0.40;;;;;;;;;;4903385;29;20290;-93
2022/01/04 15:17:07;;;;;;;0.20;0.20;;;;;;;;;;4903369;29;20589;-93
2022/01/04 15:19:35;;;;;;;0.40;0.40;;;;;;;;;;4898654;29;20279;-93
2022/01/04 15:22:02;;;;;;;0.60;0.60;;;;;;;;;;4903834;29;20218;-92
2022/01/04 15:24:30;;;;;;;0.33;0.33;;;;;;;;;;4906419;29;20223;-93
2022/01/04 15:26:59;;;;;;;0.40;0.40;;;;;;;;;;4905199;29;20207;-93